Portada
METAR-TAF:

METAR-TAF

Aeropuertos :

Aeropuerto Internacional Rey Husein

Aqaba, Jordania

latitud: 29-38N, longitud: 035-01E, altitud: 53 m

Observación

El informe se hizo hace 12 minutos, a las 15:00 UTC
Viento 10 kt del norte
Temperatura 30°C
Humedad 27%
Presión 1009 hPa
Visibilidad: 5000 m
calima,

METAR: OJAQ 141500Z 36010KT 5000 HZ NSC 30/09 Q1009 NOSIG

Hora: 18:12 (15:12 UTC)

Pronóstico

El informe se hizo hace 4 horas y 18 minutos, a las 10:54 UTC
Pronóstico válido del 14 a las 12 UTC al 15 a las 18 UTC
Viento 14 kt del norte
Visibilidad: 5000 m
calima
Probabilidad 40% :
Temporalmente
del 14 a las 12 UTC al 14 a las 18 UTC
Viento 22 kt del norte
Visibilidad: 3000 m
Ventisca alta de polvo,

TAF: OJAQ 141054Z 1412/1518 36014KT 5000 HZ NSC PROB40 TEMPO 1412/1418 01022KT 3000 BLDU

Observaciones y pronósticos meteorológicos de más de 4000 aeropuertos (mensajes METAR y TAF).

Los puntos amarillos y rojos representan las estaciones disponibles.

Ponga el ratón en el punto deseado para ver el nombre de la estación.

Haga clic para ver las observaciones y los pronósticos meteorológicos.

Para cambiar el mapa : haga clic en los botones verdes con una cruz de color negro para hacer un zoom, en el botón verde con un guión para alejar o en las flechas verdes para mapas adyacentes.


METAR-TAF: